Time;durP1;ratioP1;P1;durP2;ratioP2;P2;SDS_P1;SDS_P2;PMS_P1;PMS_P2;Temp;Humidity;BMP_temperature;BMP_pressure;BME280_temperature;BME280_humidity;BME280_pressure;Samples;Min_cycle;Max_cycle;Signal;HPM_P1;HPM_P2
2023/10/27 00:00:40;;;;;;;36.53;4.72;;;;;;;;;;5052078;28;20167;-73
2023/10/27 00:03:07;;;;;;;33.90;4.85;;;;;;;;;;5051668;28;20041;-73
2023/10/27 00:05:34;;;;;;;31.45;4.13;;;;;;;;;;5050454;28;20052;-73
2023/10/27 00:08:01;;;;;;;31.30;4.28;;;;;;;;;;5051464;28;20322;-73
2023/10/27 00:10:28;;;;;;;20.33;3.15;;;;;;;;;;5051077;28;20037;-73
2023/10/27 00:12:55;;;;;;;18.45;3.13;;;;;;;;;;5051807;28;20036;-72
2023/10/27 00:15:22;;;;;;;20.85;3.05;;;;;;;;;;5049850;28;20049;-73
2023/10/27 00:17:49;;;;;;;21.88;3.65;;;;;;;;;;5049837;28;20041;-73
2023/10/27 00:20:16;;;;;;;20.35;3.35;;;;;;;;;;5049455;28;20040;-73
2023/10/27 00:22:43;;;;;;;27.40;3.20;;;;;;;;;;5049622;28;20040;-73
2023/10/27 00:25:10;;;;;;;22.15;2.70;;;;;;;;;;5049619;28;20060;-74
2023/10/27 00:27:37;;;;;;;19.52;2.97;;;;;;;;;;5051786;28;20135;-74
2023/10/27 00:30:05;;;;;;;29.15;3.65;;;;;;;;;;5091342;28;20040;-74
2023/10/27 00:32:32;;;;;;;29.42;3.90;;;;;;;;;;5090093;28;20044;-73
2023/10/27 00:34:59;;;;;;;28.77;4.15;;;;;;;;;;5073477;28;20036;-73
2023/10/27 00:37:25;;;;;;;31.95;3.83;;;;;;;;;;5089817;28;20058;-74
2023/10/27 00:39:52;;;;;;;29.75;3.90;;;;;;;;;;5091408;28;20048;-73
2023/10/27 00:42:19;;;;;;;23.75;3.33;;;;;;;;;;5091086;28;20044;-73
2023/10/27 00:44:46;;;;;;;26.27;4.05;;;;;;;;;;5091388;28;20047;-74
2023/10/27 00:47:12;;;;;;;22.00;2.85;;;;;;;;;;5091125;28;20048;-73
2023/10/27 00:49:39;;;;;;;22.67;3.28;;;;;;;;;;5089950;28;20044;-73
2023/10/27 00:52:06;;;;;;;27.90;3.75;;;;;;;;;;5091011;28;20040;-73
2023/10/27 00:54:35;;;;;;;29.13;4.03;;;;;;;;;;5089807;28;20367;-74
2023/10/27 00:57:02;;;;;;;34.63;3.85;;;;;;;;;;5074123;28;20041;-74
2023/10/27 00:59:30;;;;;;;29.15;4.07;;;;;;;;;;5070641;28;20040;-74
2023/10/27 01:01:57;;;;;;;31.65;4.57;;;;;;;;;;5068910;28;20048;-73
2023/10/27 01:04:24;;;;;;;37.15;4.63;;;;;;;;;;5070136;28;22273;-74
2023/10/27 01:06:52;;;;;;;37.50;4.88;;;;;;;;;;5071250;28;20041;-73
2023/10/27 01:09:19;;;;;;;36.00;4.85;;;;;;;;;;5070370;28;20475;-74
2023/10/27 01:11:48;;;;;;;37.30;4.70;;;;;;;;;;5070968;28;20410;-73
2023/10/27 01:14:15;;;;;;;27.63;4.22;;;;;;;;;;5069496;28;20124;-73
2023/10/27 01:16:41;;;;;;;38.08;4.88;;;;;;;;;;5070862;28;20044;-73
2023/10/27 01:19:08;;;;;;;30.75;4.32;;;;;;;;;;5070394;28;20037;-74
2023/10/27 01:21:35;;;;;;;30.25;3.97;;;;;;;;;;5071009;28;20093;-74
2023/10/27 01:24:04;;;;;;;28.40;4.43;;;;;;;;;;5069784;28;20491;-73
2023/10/27 01:26:31;;;;;;;34.60;3.78;;;;;;;;;;5069020;28;20047;-73
2023/10/27 01:28:57;;;;;;;34.65;3.58;;;;;;;;;;5069511;28;20048;-73
2023/10/27 01:31:24;;;;;;;35.40;4.20;;;;;;;;;;5070675;28;20044;-73
2023/10/27 01:33:51;;;;;;;26.42;3.25;;;;;;;;;;5070823;28;20052;-74
2023/10/27 01:36:18;;;;;;;25.70;2.92;;;;;;;;;;5070575;28;20179;-73
2023/10/27 01:38:45;;;;;;;25.67;3.22;;;;;;;;;;5069463;28;20046;-73
2023/10/27 01:41:12;;;;;;;28.77;4.22;;;;;;;;;;5068903;28;20048;-75
2023/10/27 01:43:38;;;;;;;39.75;4.45;;;;;;;;;;5070775;28;20438;-73
2023/10/27 01:46:05;;;;;;;35.15;3.78;;;;;;;;;;5069233;28;20090;-73
2023/10/27 01:48:32;;;;;;;32.47;4.97;;;;;;;;;;5070636;28;20063;-73
2023/10/27 01:50:59;;;;;;;40.85;4.22;;;;;;;;;;5070920;28;20044;-73
2023/10/27 01:53:26;;;;;;;34.88;4.68;;;;;;;;;;5070572;28;20044;-75
2023/10/27 01:55:52;;;;;;;42.03;4.57;;;;;;;;;;5070368;28;20080;-73
2023/10/27 01:58:19;;;;;;;36.70;3.80;;;;;;;;;;5068885;28;20044;-73
2023/10/27 02:00:46;;;;;;;35.78;4.63;;;;;;;;;;5069079;28;20086;-74
2023/10/27 02:03:12;;;;;;;37.58;5.45;;;;;;;;;;5068691;28;20049;-74
2023/10/27 02:05:44;;;;;;;36.28;4.55;;;;;;;;;;5070330;28;20056;-74
2023/10/27 02:08:10;;;;;;;27.33;4.45;;;;;;;;;;5070223;28;20048;-75
2023/10/27 02:10:37;;;;;;;31.92;4.30;;;;;;;;;;5070347;28;20336;-74
2023/10/27 02:13:04;;;;;;;32.08;4.22;;;;;;;;;;5070309;28;20094;-74
2023/10/27 02:15:31;;;;;;;37.00;5.95;;;;;;;;;;5069125;28;20045;-74
2023/10/27 02:17:57;;;;;;;32.20;5.20;;;;;;;;;;5070574;28;20045;-74
2023/10/27 02:20:24;;;;;;;30.27;4.07;;;;;;;;;;5052025;28;20132;-74
2023/10/27 02:22:51;;;;;;;33.22;4.07;;;;;;;;;;5073380;28;20037;-73
2023/10/27 02:25:18;;;;;;;32.95;4.15;;;;;;;;;;5073049;28;20040;-74
2023/10/27 02:27:44;;;;;;;36.28;5.05;;;;;;;;;;5073709;28;20075;-74
2023/10/27 02:30:11;;;;;;;30.83;4.03;;;;;;;;;;5073325;28;20517;-74
2023/10/27 02:32:38;;;;;;;25.05;3.45;;;;;;;;;;5073556;28;20036;-74
2023/10/27 02:35:05;;;;;;;19.92;3.30;;;;;;;;;;5072059;28;20063;-74
2023/10/27 02:37:32;;;;;;;23.48;3.63;;;;;;;;;;5072307;28;20040;-74
2023/10/27 02:39:59;;;;;;;29.92;4.47;;;;;;;;;;5073674;28;20041;-74
2023/10/27 02:42:25;;;;;;;22.92;4.15;;;;;;;;;;5073153;28;20044;-73
2023/10/27 02:44:53;;;;;;;23.48;4.00;;;;;;;;;;5073817;28;20082;-74
2023/10/27 02:47:19;;;;;;;23.45;4.30;;;;;;;;;;5073275;28;20071;-73
2023/10/27 02:49:46;;;;;;;21.38;3.33;;;;;;;;;;5072191;28;20097;-73
2023/10/27 02:52:13;;;;;;;32.92;4.20;;;;;;;;;;5073198;28;20059;-74
2023/10/27 02:54:40;;;;;;;27.60;4.00;;;;;;;;;;5073437;28;20411;-74
2023/10/27 02:57:06;;;;;;;36.30;4.45;;;;;;;;;;5051448;28;20541;-74
2023/10/27 02:59:34;;;;;;;27.88;4.43;;;;;;;;;;5051896;28;20376;-74
2023/10/27 03:02:01;;;;;;;36.50;4.18;;;;;;;;;;5053103;28;20420;-74
2023/10/27 03:04:28;;;;;;;31.38;3.90;;;;;;;;;;5034833;28;20071;-74
2023/10/27 03:06:55;;;;;;;40.15;4.25;;;;;;;;;;5051801;28;20033;-73
2023/10/27 03:09:22;;;;;;;33.70;4.75;;;;;;;;;;5052653;28;20099;-74
2023/10/27 03:11:49;;;;;;;25.40;5.35;;;;;;;;;;5052953;28;20056;-74
2023/10/27 03:14:16;;;;;;;33.92;4.50;;;;;;;;;;5052607;28;20128;-74
2023/10/27 03:16:43;;;;;;;27.63;3.50;;;;;;;;;;5052773;28;20489;-74
2023/10/27 03:19:10;;;;;;;26.40;4.32;;;;;;;;;;5052597;28;20456;-74
2023/10/27 03:21:37;;;;;;;18.25;3.53;;;;;;;;;;5052635;28;20044;-74
2023/10/27 03:24:05;;;;;;;30.40;3.58;;;;;;;;;;5052501;28;20037;-74
2023/10/27 03:26:31;;;;;;;33.17;4.80;;;;;;;;;;5052571;28;20102;-74
2023/10/27 03:28:58;;;;;;;21.13;4.20;;;;;;;;;;5090162;28;20040;-74
2023/10/27 03:31:25;;;;;;;24.27;3.97;;;;;;;;;;5092500;28;20121;-74
2023/10/27 03:33:52;;;;;;;22.60;3.20;;;;;;;;;;5092619;28;20044;-74
2023/10/27 03:36:19;;;;;;;29.13;4.07;;;;;;;;;;5092404;28;20044;-74
2023/10/27 03:38:46;;;;;;;26.02;3.53;;;;;;;;;;5092624;28;20467;-74
2023/10/27 03:41:12;;;;;;;29.83;3.85;;;;;;;;;;5092562;28;20105;-74
2023/10/27 03:43:39;;;;;;;21.30;3.22;;;;;;;;;;5092688;28;20051;-74
2023/10/27 03:46:07;;;;;;;27.33;3.80;;;;;;;;;;5092349;28;20095;-74
2023/10/27 03:48:34;;;;;;;38.27;4.27;;;;;;;;;;5074428;28;20046;-74
2023/10/27 03:51:05;;;;;;;35.63;4.00;;;;;;;;;;5092877;28;20490;-74
2023/10/27 03:53:32;;;;;;;31.38;3.97;;;;;;;;;;5092183;28;20104;-73
2023/10/27 03:55:59;;;;;;;29.13;4.05;;;;;;;;;;5084140;28;20111;-74
2023/10/27 03:58:26;;;;;;;29.48;4.85;;;;;;;;;;5070333;28;20121;-73
2023/10/27 04:01:12;;;;;;;28.65;3.65;;;;;;;;;;5071684;28;20056;-73
2023/10/27 04:03:39;;;;;;;29.30;3.63;;;;;;;;;;5071922;28;20040;-74
2023/10/27 04:06:06;;;;;;;32.95;4.25;;;;;;;;;;5070409;28;20044;-74
2023/10/27 04:08:33;;;;;;;29.65;4.75;;;;;;;;;;5071940;28;20047;-74
2023/10/27 04:10:59;;;;;;;33.63;4.47;;;;;;;;;;5072122;28;20036;-74
2023/10/27 04:13:26;;;;;;;33.15;4.47;;;;;;;;;;5071422;28;20040;-74
2023/10/27 04:15:53;;;;;;;39.38;5.13;;;;;;;;;;5072070;28;20123;-74
2023/10/27 04:18:20;;;;;;;22.42;3.35;;;;;;;;;;5070950;28;20041;-74
2023/10/27 04:20:49;;;;;;;25.85;4.28;;;;;;;;;;5071610;28;20056;-77
2023/10/27 04:23:16;;;;;;;30.10;4.65;;;;;;;;;;5071759;28;20059;-73
2023/10/27 04:25:42;;;;;;;39.92;5.05;;;;;;;;;;5071494;28;20479;-74
2023/10/27 04:28:09;;;;;;;26.70;4.80;;;;;;;;;;5065633;28;20052;-74
2023/10/27 04:30:37;;;;;;;37.22;5.05;;;;;;;;;;5092445;28;20119;-74
2023/10/27 04:33:04;;;;;;;37.97;5.70;;;;;;;;;;5091761;28;20040;-74
2023/10/27 04:35:32;;;;;;;36.30;4.95;;;;;;;;;;5073717;28;20419;-74
2023/10/27 04:37:59;;;;;;;33.35;5.93;;;;;;;;;;5090508;28;20104;-74
2023/10/27 04:40:28;;;;;;;26.50;4.28;;;;;;;;;;5089998;28;20436;-74
2023/10/27 04:42:58;;;;;;;30.63;4.88;;;;;;;;;;5090382;28;20047;-74
2023/10/27 04:45:25;;;;;;;26.73;4.38;;;;;;;;;;5089076;28;20091;-74
2023/10/27 04:47:53;;;;;;;38.38;5.22;;;;;;;;;;5091669;28;20040;-74
2023/10/27 04:50:21;;;;;;;34.33;5.13;;;;;;;;;;5091041;28;20370;-74
2023/10/27 04:52:48;;;;;;;28.65;4.03;;;;;;;;;;5091503;28;20042;-75
2023/10/27 04:55:15;;;;;;;31.40;4.25;;;;;;;;;;5089082;28;20050;-73
2023/10/27 04:57:42;;;;;;;31.83;4.57;;;;;;;;;;5053030;28;20406;-74
2023/10/27 05:00:09;;;;;;;40.97;6.47;;;;;;;;;;5070989;28;20177;-74
2023/10/27 05:02:36;;;;;;;28.00;5.20;;;;;;;;;;5071076;28;20040;-73
2023/10/27 05:05:03;;;;;;;24.10;4.13;;;;;;;;;;5069911;28;20422;-73
2023/10/27 05:07:30;;;;;;;32.45;5.30;;;;;;;;;;5070702;28;20044;-74
2023/10/27 05:09:57;;;;;;;33.13;5.13;;;;;;;;;;5069978;28;20382;-73
2023/10/27 05:12:24;;;;;;;38.78;4.97;;;;;;;;;;5070757;28;20056;-73
2023/10/27 05:14:50;;;;;;;40.28;5.53;;;;;;;;;;5071091;28;20032;-73
2023/10/27 05:17:18;;;;;;;30.83;5.07;;;;;;;;;;5070851;28;20140;-75
2023/10/27 05:19:44;;;;;;;33.45;5.25;;;;;;;;;;5069535;28;20490;-75
2023/10/27 05:22:13;;;;;;;45.10;5.70;;;;;;;;;;5070757;28;20051;-74
2023/10/27 05:24:41;;;;;;;29.80;4.90;;;;;;;;;;5069741;28;20482;-75
2023/10/27 05:27:08;;;;;;;32.83;4.97;;;;;;;;;;5069000;28;20036;-74
2023/10/27 05:29:35;;;;;;;31.92;5.65;;;;;;;;;;5070709;28;20051;-74
2023/10/27 05:32:02;;;;;;;45.30;5.90;;;;;;;;;;5071190;28;20043;-75
2023/10/27 05:34:28;;;;;;;41.30;5.47;;;;;;;;;;5069111;28;20051;-74
2023/10/27 05:36:58;;;;;;;34.05;5.03;;;;;;;;;;5071080;28;20048;-74
2023/10/27 05:39:26;;;;;;;41.40;6.43;;;;;;;;;;5070256;28;20097;-75
2023/10/27 05:41:53;;;;;;;38.67;5.63;;;;;;;;;;5069572;28;20032;-74
2023/10/27 05:44:20;;;;;;;45.70;6.75;;;;;;;;;;5069017;28;20043;-74
2023/10/27 05:46:47;;;;;;;29.65;5.53;;;;;;;;;;5070697;28;20036;-75
2023/10/27 05:49:14;;;;;;;41.17;5.75;;;;;;;;;;5070457;28;20534;-73
2023/10/27 05:51:41;;;;;;;37.70;6.30;;;;;;;;;;5049359;28;20148;-74
2023/10/27 05:54:08;;;;;;;34.97;6.05;;;;;;;;;;5084006;28;20123;-73
2023/10/27 05:56:35;;;;;;;34.63;5.65;;;;;;;;;;5077141;28;20382;-73
2023/10/27 05:59:01;;;;;;;40.35;5.95;;;;;;;;;;5074701;28;20044;-73
2023/10/27 06:01:28;;;;;;;34.67;4.78;;;;;;;;;;5063782;28;20045;-73
2023/10/27 06:03:57;;;;;;;38.13;4.70;;;;;;;;;;5055863;28;20045;-73
2023/10/27 06:06:25;;;;;;;27.90;4.88;;;;;;;;;;5054128;28;20590;-74
2023/10/27 06:08:52;;;;;;;36.70;5.57;;;;;;;;;;5055916;28;20057;-74
2023/10/27 06:11:19;;;;;;;30.25;5.60;;;;;;;;;;5055164;28;20041;-73
2023/10/27 06:13:46;;;;;;;24.63;4.70;;;;;;;;;;5088088;28;20376;-73
2023/10/27 06:16:13;;;;;;;27.92;4.40;;;;;;;;;;5055274;28;20045;-73
2023/10/27 06:18:41;;;;;;;39.33;5.65;;;;;;;;;;5055732;28;20124;-74
2023/10/27 06:21:07;;;;;;;29.45;4.63;;;;;;;;;;5055052;28;20068;-73
2023/10/27 06:23:34;;;;;;;32.97;5.05;;;;;;;;;;5055596;28;20037;-73
2023/10/27 06:26:02;;;;;;;32.40;4.30;;;;;;;;;;5055259;28;20371;-73
2023/10/27 06:28:28;;;;;;;39.33;5.40;;;;;;;;;;5065648;28;20044;-74
2023/10/27 06:30:55;;;;;;;35.75;4.78;;;;;;;;;;5094441;28;20044;-74
2023/10/27 06:33:22;;;;;;;34.85;4.82;;;;;;;;;;5093751;28;20048;-73
2023/10/27 06:35:49;;;;;;;27.42;4.43;;;;;;;;;;5095560;28;20051;-73
2023/10/27 06:38:16;;;;;;;26.25;4.85;;;;;;;;;;5095195;28;20048;-73
2023/10/27 06:40:42;;;;;;;28.40;4.78;;;;;;;;;;5094067;28;20040;-73
2023/10/27 06:43:09;;;;;;;33.85;4.32;;;;;;;;;;5093621;28;20070;-72
2023/10/27 06:45:36;;;;;;;33.47;5.22;;;;;;;;;;5095387;28;20044;-73
2023/10/27 06:48:03;;;;;;;34.85;4.55;;;;;;;;;;5093936;28;20379;-73
2023/10/27 06:50:30;;;;;;;33.70;5.47;;;;;;;;;;5093724;28;20097;-73
2023/10/27 06:52:57;;;;;;;39.72;5.07;;;;;;;;;;5095244;28;20075;-74
2023/10/27 06:55:26;;;;;;;31.65;6.00;;;;;;;;;;5091104;28;20094;-73
2023/10/27 06:57:52;;;;;;;34.60;5.88;;;;;;;;;;5073536;28;20036;-73
2023/10/27 07:00:19;;;;;;;40.28;5.55;;;;;;;;;;5074428;28;20055;-73
2023/10/27 07:02:47;;;;;;;33.60;5.10;;;;;;;;;;5073676;28;20063;-73
2023/10/27 07:05:23;;;;;;;26.75;4.13;;;;;;;;;;5074330;28;20124;-73
2023/10/27 07:07:52;;;;;;;28.42;4.35;;;;;;;;;;5072950;28;20036;-74
2023/10/27 07:10:19;;;;;;;28.40;4.55;;;;;;;;;;5074182;28;20040;-73
2023/10/27 07:12:46;;;;;;;36.25;4.65;;;;;;;;;;5074624;28;20039;-73
2023/10/27 07:15:14;;;;;;;36.42;5.40;;;;;;;;;;5074443;28;20054;-73
2023/10/27 07:17:41;;;;;;;32.90;4.07;;;;;;;;;;5074647;28;20052;-74
2023/10/27 07:20:09;;;;;;;26.80;4.93;;;;;;;;;;5072819;28;20482;-73
2023/10/27 07:22:36;;;;;;;29.23;4.90;;;;;;;;;;5074459;28;20070;-73
2023/10/27 07:25:07;;;;;;;42.15;4.80;;;;;;;;;;5074461;28;20048;-73
2023/10/27 07:27:35;;;;;;;34.65;4.28;;;;;;;;;;5072771;28;20037;-73
2023/10/27 07:30:02;;;;;;;32.65;4.63;;;;;;;;;;5074490;28;20051;-74
2023/10/27 07:32:29;;;;;;;31.15;5.40;;;;;;;;;;5073697;28;20402;-74
2023/10/27 07:34:56;;;;;;;33.67;4.78;;;;;;;;;;5072946;28;20040;-74
2023/10/27 07:37:23;;;;;;;33.70;4.28;;;;;;;;;;5055794;28;20479;-73
2023/10/27 07:39:50;;;;;;;33.53;4.53;;;;;;;;;;5072807;28;20551;-74
2023/10/27 07:42:17;;;;;;;28.23;4.55;;;;;;;;;;5072462;28;20109;-74
2023/10/27 07:44:44;;;;;;;33.22;4.18;;;;;;;;;;5074096;28;20048;-74
2023/10/27 07:47:11;;;;;;;24.17;3.38;;;;;;;;;;5055741;28;20037;-73
2023/10/27 07:49:38;;;;;;;34.45;4.60;;;;;;;;;;5072667;28;20044;-73
2023/10/27 07:52:05;;;;;;;35.67;4.65;;;;;;;;;;5073495;28;20395;-71
2023/10/27 07:54:32;;;;;;;30.67;4.15;;;;;;;;;;5072464;28;20536;-74
2023/10/27 07:56:59;;;;;;;26.77;4.22;;;;;;;;;;5072262;28;20040;-74
2023/10/27 07:59:29;;;;;;;26.10;4.55;;;;;;;;;;5072142;28;20037;-74
2023/10/27 08:01:57;;;;;;;26.00;4.90;;;;;;;;;;5073415;28;20062;-75
2023/10/27 08:04:27;;;;;;;34.45;4.50;;;;;;;;;;5073307;28;20041;-73
2023/10/27 08:06:54;;;;;;;25.58;4.97;;;;;;;;;;5073381;28;20040;-74
2023/10/27 08:09:20;;;;;;;25.80;4.32;;;;;;;;;;5068399;28;20503;-74
2023/10/27 08:11:48;;;;;;;20.67;3.95;;;;;;;;;;5065656;28;20382;-74
2023/10/27 08:14:16;;;;;;;19.27;3.97;;;;;;;;;;5071561;28;20064;-74
2023/10/27 08:16:43;;;;;;;26.90;3.72;;;;;;;;;;5071887;28;20048;-73
2023/10/27 08:19:10;;;;;;;30.42;4.05;;;;;;;;;;5051832;28;20056;-74
2023/10/27 08:21:40;;;;;;;26.48;4.22;;;;;;;;;;5072039;28;20133;-74
2023/10/27 08:24:08;;;;;;;23.63;3.80;;;;;;;;;;5070851;28;20052;-74
2023/10/27 08:26:35;;;;;;;20.67;3.13;;;;;;;;;;5071526;28;20050;-73
2023/10/27 08:29:02;;;;;;;24.85;3.45;;;;;;;;;;5054983;28;20044;-73
2023/10/27 08:31:29;;;;;;;25.95;3.60;;;;;;;;;;5072330;28;20041;-74
2023/10/27 08:33:59;;;;;;;24.83;3.90;;;;;;;;;;5070181;28;20538;-74
2023/10/27 08:36:27;;;;;;;23.85;3.67;;;;;;;;;;5069918;28;20036;-73
2023/10/27 08:38:54;;;;;;;34.78;5.18;;;;;;;;;;5071365;28;20044;-74
2023/10/27 08:41:25;;;;;;;24.65;3.60;;;;;;;;;;5071233;28;20553;-73
2023/10/27 08:43:55;;;;;;;23.05;3.78;;;;;;;;;;5064202;28;20041;-74
2023/10/27 08:46:32;;;;;;;22.55;3.15;;;;;;;;;;5044355;28;20114;-73
2023/10/27 08:48:58;;;;;;;17.60;3.05;;;;;;;;;;5064574;28;20127;-73
2023/10/27 08:51:26;;;;;;;19.52;2.92;;;;;;;;;;5070793;28;20056;-74
2023/10/27 08:53:53;;;;;;;19.33;2.80;;;;;;;;;;5071657;28;20041;-74
2023/10/27 08:56:20;;;;;;;22.55;3.22;;;;;;;;;;5069162;28;20049;-73
2023/10/27 08:58:49;;;;;;;18.60;2.40;;;;;;;;;;5071591;28;20040;-74
2023/10/27 09:01:16;;;;;;;11.80;1.77;;;;;;;;;;5070918;28;20052;-74
2023/10/27 09:04:10;;;;;;;15.77;1.83;;;;;;;;;;5071200;28;20049;-74
2023/10/27 09:06:39;;;;;;;12.98;2.08;;;;;;;;;;5066061;28;20548;-74
2023/10/27 09:09:07;;;;;;;8.88;1.75;;;;;;;;;;5070803;28;20039;-74
2023/10/27 09:11:48;;;;;;;13.95;1.77;;;;;;;;;;5069617;28;20479;-74
2023/10/27 09:14:26;;;;;;;9.38;1.75;;;;;;;;;;5069762;28;20067;-73
2023/10/27 09:17:06;;;;;;;;;;;;;;;;;;5071632;28;20472;-74
2023/10/27 09:19:34;;;;;;;12.98;1.75;;;;;;;;;;5071861;28;19928;-73
2023/10/27 09:22:05;;;;;;;13.43;1.90;;;;;;;;;;5072214;28;20037;-74
2023/10/27 09:24:32;;;;;;;14.88;1.60;;;;;;;;;;5072178;28;20041;-73
2023/10/27 09:26:59;;;;;;;7.10;1.70;;;;;;;;;;5072327;28;20049;-72
2023/10/27 09:29:31;;;;;;;6.45;1.60;;;;;;;;;;5072052;28;20051;-72
2023/10/27 09:31:58;;;;;;;8.02;1.48;;;;;;;;;;5074879;28;20041;-74
2023/10/27 09:34:26;;;;;;;13.77;1.83;;;;;;;;;;5076327;28;20416;-73
2023/10/27 09:36:54;;;;;;;9.43;2.33;;;;;;;;;;5076599;28;20052;-75
2023/10/27 09:39:24;;;;;;;10.23;1.80;;;;;;;;;;5076170;28;20306;-72
2023/10/27 09:42:02;;;;;;;11.13;1.90;;;;;;;;;;5076642;28;20036;-74
2023/10/27 09:45:01;;;;;;;12.70;2.20;;;;;;;;;;5076310;28;20063;-71
2023/10/27 09:47:32;;;;;;;13.18;2.00;;;;;;;;;;5076381;28;20048;-73
2023/10/27 09:50:06;;;;;;;10.93;1.67;;;;;;;;;;5076613;28;20051;-73
2023/10/27 09:52:34;;;;;;;9.45;2.00;;;;;;;;;;5096167;28;20474;-73
2023/10/27 09:55:02;;;;;;;11.13;1.95;;;;;;;;;;5081666;28;20483;-73
2023/10/27 09:57:44;;;;;;;10.32;1.90;;;;;;;;;;5070963;28;20040;-76
2023/10/27 10:00:29;;;;;;;10.70;1.75;;;;;;;;;;5032213;28;20156;-74
2023/10/27 10:02:57;;;;;;;11.70;1.70;;;;;;;;;;5051615;28;20091;-74
2023/10/27 10:05:23;;;;;;;10.43;1.58;;;;;;;;;;5047592;28;20045;-73
2023/10/27 10:07:57;;;;;;;10.75;1.70;;;;;;;;;;5047355;28;20037;-73
2023/10/27 10:10:34;;;;;;;7.97;1.90;;;;;;;;;;5054035;28;20479;-74
2023/10/27 10:13:14;;;;;;;8.75;1.63;;;;;;;;;;5054274;28;20420;-73
2023/10/27 10:15:43;;;;;;;12.68;2.47;;;;;;;;;;5052474;28;20040;-74
2023/10/27 10:18:19;;;;;;;;;;;;;;;;;;5047639;28;20041;-73
2023/10/27 10:20:58;;;;;;;7.72;1.40;;;;;;;;;;5053138;28;19932;-73
2023/10/27 10:23:51;;;;;;;9.20;1.40;;;;;;;;;;5049561;28;20099;-73
2023/10/27 10:26:18;;;;;;;10.45;1.83;;;;;;;;;;5051198;28;20491;-74
2023/10/27 10:28:46;;;;;;;16.75;2.03;;;;;;;;;;5050939;28;20053;-76
2023/10/27 10:31:13;;;;;;;12.68;1.85;;;;;;;;;;5050199;28;20049;-74
2023/10/27 10:33:40;;;;;;;12.45;1.88;;;;;;;;;;5052006;28;20530;-74
2023/10/27 10:36:14;;;;;;;10.38;1.90;;;;;;;;;;5052528;28;20037;-74
2023/10/27 10:38:43;;;;;;;13.88;2.22;;;;;;;;;;5052231;28;20041;-74
2023/10/27 10:41:10;;;;;;;14.20;2.70;;;;;;;;;;5048223;28;20069;-77
2023/10/27 10:43:37;;;;;;;19.65;2.58;;;;;;;;;;5044082;28;20501;-74
2023/10/27 10:46:06;;;;;;;13.25;2.05;;;;;;;;;;5042823;28;20041;-73
2023/10/27 10:48:35;;;;;;;15.60;2.20;;;;;;;;;;5050968;28;20099;-74
2023/10/27 10:51:11;;;;;;;16.23;2.63;;;;;;;;;;5052395;28;20127;-73
2023/10/27 10:53:38;;;;;;;16.10;2.47;;;;;;;;;;5051887;28;20061;-74
2023/10/27 10:56:05;;;;;;;21.92;2.97;;;;;;;;;;5052706;28;20467;-74
2023/10/27 10:58:35;;;;;;;23.35;2.92;;;;;;;;;;5040608;28;20037;-74
2023/10/27 11:01:03;;;;;;;17.52;2.67;;;;;;;;;;5052950;28;20067;-74
2023/10/27 11:03:33;;;;;;;18.63;2.97;;;;;;;;;;5052039;28;20048;-74
2023/10/27 11:06:04;;;;;;;22.23;2.58;;;;;;;;;;5053331;28;20094;-74
2023/10/27 11:08:34;;;;;;;12.65;2.10;;;;;;;;;;5052881;28;20479;-74
2023/10/27 11:11:02;;;;;;;11.00;1.80;;;;;;;;;;5053389;28;20061;-74
2023/10/27 11:13:31;;;;;;;14.13;2.08;;;;;;;;;;5039702;28;20140;-73
2023/10/27 11:16:00;;;;;;;19.27;3.50;;;;;;;;;;5053223;28;20391;-73
2023/10/27 11:18:29;;;;;;;19.98;2.45;;;;;;;;;;5051435;28;20430;-73
2023/10/27 11:20:56;;;;;;;16.73;2.30;;;;;;;;;;5052983;28;20045;-74
2023/10/27 11:23:29;;;;;;;9.02;2.10;;;;;;;;;;5052857;28;20380;-74
2023/10/27 11:26:04;;;;;;;13.52;2.55;;;;;;;;;;5052952;28;20060;-74
2023/10/27 11:28:37;;;;;;;11.25;1.85;;;;;;;;;;5066478;28;20045;-74
2023/10/27 11:31:19;;;;;;;15.43;2.13;;;;;;;;;;5065375;28;20071;-73
2023/10/27 11:34:00;;;;;;;13.38;2.10;;;;;;;;;;5075346;28;20079;-73
2023/10/27 11:36:29;;;;;;;14.68;1.95;;;;;;;;;;5063275;28;20041;-74
2023/10/27 11:38:56;;;;;;;;;;;;;;;;;;5073009;28;20040;-73
2023/10/27 11:41:22;;;;;;;17.63;2.65;;;;;;;;;;5072276;28;20255;-74
2023/10/27 11:43:49;;;;;;;14.50;2.30;;;;;;;;;;5068549;28;20062;-73
2023/10/27 11:46:17;;;;;;;14.80;2.30;;;;;;;;;;5069046;28;20380;-76
2023/10/27 11:48:45;;;;;;;20.15;3.58;;;;;;;;;;5072248;28;20037;-77
2023/10/27 11:51:12;;;;;;;13.60;2.80;;;;;;;;;;5071957;28;20040;-74
2023/10/27 11:53:41;;;;;;;23.30;3.47;;;;;;;;;;5071965;28;20049;-74
2023/10/27 11:56:08;;;;;;;26.35;3.28;;;;;;;;;;5063448;28;20048;-73
2023/10/27 11:58:35;;;;;;;22.10;3.40;;;;;;;;;;5072183;28;20054;-73
2023/10/27 12:01:02;;;;;;;19.38;2.90;;;;;;;;;;5068166;28;20037;-74
2023/10/27 12:03:29;;;;;;;21.92;3.67;;;;;;;;;;5071809;28;20039;-74
2023/10/27 12:05:56;;;;;;;22.17;3.03;;;;;;;;;;5069270;28;20056;-73
2023/10/27 12:08:24;;;;;;;22.35;3.90;;;;;;;;;;5069500;28;20055;-74
2023/10/27 12:10:52;;;;;;;20.27;3.42;;;;;;;;;;5072048;28;20475;-74
2023/10/27 12:13:20;;;;;;;;;;;;;;;;;;5070603;28;20045;-75
2023/10/27 12:15:47;;;;;;;20.90;3.85;;;;;;;;;;5069284;28;19963;-73
2023/10/27 12:18:21;;;;;;;17.23;3.38;;;;;;;;;;5071408;28;20048;-73
2023/10/27 12:20:49;;;;;;;15.93;2.83;;;;;;;;;;5068368;28;20040;-73
2023/10/27 12:23:18;;;;;;;;;;;;;;;;;;5070000;28;20056;-73
2023/10/27 12:25:45;;;;;;;25.42;4.45;;;;;;;;;;5069237;28;20011;-73
2023/10/27 12:28:12;;;;;;;26.42;4.60;;;;;;;;;;5070413;28;20064;-72
2023/10/27 12:30:39;;;;;;;21.98;3.80;;;;;;;;;;5067647;28;20052;-73
2023/10/27 12:33:09;;;;;;;20.02;3.58;;;;;;;;;;5051750;28;20041;-73
2023/10/27 12:35:37;;;;;;;24.10;3.78;;;;;;;;;;5053832;28;20044;-73
2023/10/27 12:38:04;;;;;;;16.52;2.90;;;;;;;;;;5071147;28;20532;-73
2023/10/27 12:40:34;;;;;;;22.33;3.15;;;;;;;;;;5056195;28;20438;-73
2023/10/27 12:43:02;;;;;;;17.90;3.15;;;;;;;;;;5070891;28;20420;-73
2023/10/27 12:45:29;;;;;;;20.92;3.47;;;;;;;;;;5069691;28;20394;-73
2023/10/27 12:47:56;;;;;;;23.00;4.15;;;;;;;;;;5070280;28;20051;-73
2023/10/27 12:50:23;;;;;;;21.08;3.80;;;;;;;;;;5068328;28;20044;-73
2023/10/27 12:52:50;;;;;;;22.40;3.67;;;;;;;;;;5064755;28;20036;-73
2023/10/27 12:55:17;;;;;;;20.40;3.58;;;;;;;;;;5060304;28;20044;-73
2023/10/27 12:57:45;;;;;;;23.27;3.78;;;;;;;;;;5051872;28;20045;-72
2023/10/27 13:00:20;;;;;;;13.85;2.33;;;;;;;;;;5043652;28;20053;-73
2023/10/27 13:02:47;;;;;;;12.77;2.08;;;;;;;;;;5057679;28;20098;-72
2023/10/27 13:05:16;;;;;;;14.70;2.80;;;;;;;;;;5068945;28;20045;-73
2023/10/27 13:07:44;;;;;;;13.85;3.00;;;;;;;;;;5070138;28;20375;-73
2023/10/27 13:10:11;;;;;;;20.38;3.63;;;;;;;;;;5070960;28;20395;-73
2023/10/27 13:12:38;;;;;;;27.58;3.72;;;;;;;;;;5070177;28;20052;-72
2023/10/27 13:15:06;;;;;;;26.48;3.35;;;;;;;;;;5069698;28;20047;-73
2023/10/27 13:17:33;;;;;;;30.52;4.95;;;;;;;;;;5065483;28;20079;-73
2023/10/27 13:20:00;;;;;;;22.60;3.55;;;;;;;;;;5071070;28;20532;-73
2023/10/27 13:22:29;;;;;;;23.90;3.53;;;;;;;;;;5067938;28;20391;-73
2023/10/27 13:24:56;;;;;;;21.17;3.22;;;;;;;;;;5070344;28;20494;-74
2023/10/27 13:27:23;;;;;;;23.08;4.30;;;;;;;;;;5068979;28;20371;-73
2023/10/27 13:29:51;;;;;;;30.48;4.15;;;;;;;;;;5075441;28;20389;-74
2023/10/27 13:32:18;;;;;;;26.63;3.47;;;;;;;;;;5084993;28;20545;-73
2023/10/27 13:34:45;;;;;;;36.35;4.95;;;;;;;;;;5050289;28;20064;-74
2023/10/27 13:37:13;;;;;;;25.23;4.45;;;;;;;;;;5068232;28;20036;-73
2023/10/27 13:39:40;;;;;;;24.27;4.18;;;;;;;;;;5071128;28;20478;-74
2023/10/27 13:42:07;;;;;;;28.85;5.53;;;;;;;;;;5070382;28;20475;-73
2023/10/27 13:44:34;;;;;;;28.60;6.20;;;;;;;;;;5070917;28;20457;-73
2023/10/27 13:47:01;;;;;;;45.50;11.50;;;;;;;;;;5068911;28;20041;-74
2023/10/27 13:49:27;;;;;;;31.50;5.22;;;;;;;;;;5058474;28;20037;-74
2023/10/27 13:51:54;;;;;;;28.58;4.03;;;;;;;;;;5050730;28;20037;-74
2023/10/27 13:54:21;;;;;;;28.77;4.00;;;;;;;;;;5050313;28;20041;-74
2023/10/27 13:56:48;;;;;;;26.67;3.85;;;;;;;;;;5048882;28;20439;-74
2023/10/27 13:59:15;;;;;;;26.52;3.83;;;;;;;;;;5049121;28;20053;-74
2023/10/27 14:01:41;;;;;;;25.55;4.28;;;;;;;;;;5065982;28;20383;-74
2023/10/27 14:04:08;;;;;;;24.25;3.63;;;;;;;;;;5069635;28;20048;-73
2023/10/27 14:06:38;;;;;;;22.90;5.15;;;;;;;;;;5069305;28;20515;-74
2023/10/27 14:09:05;;;;;;;55.35;21.33;;;;;;;;;;5067508;28;20132;-74
2023/10/27 14:11:32;;;;;;;30.35;12.98;;;;;;;;;;5073687;28;20426;-74
2023/10/27 14:13:58;;;;;;;21.83;6.70;;;;;;;;;;5043353;28;20043;-74
2023/10/27 14:16:25;;;;;;;21.02;3.85;;;;;;;;;;5070602;28;20040;-73
2023/10/27 14:18:53;;;;;;;12.73;4.07;;;;;;;;;;5070361;28;20032;-74
2023/10/27 14:21:20;;;;;;;21.27;4.95;;;;;;;;;;5094145;28;20486;-71
2023/10/27 14:23:48;;;;;;;16.38;4.60;;;;;;;;;;5095444;28;20044;-71
2023/10/27 14:26:16;;;;;;;21.42;8.02;;;;;;;;;;5094653;28;20055;-74
2023/10/27 14:28:42;;;;;;;20.60;4.55;;;;;;;;;;5092538;28;20054;-73
2023/10/27 14:31:10;;;;;;;12.75;2.60;;;;;;;;;;5087013;28;20040;-73
2023/10/27 14:33:38;;;;;;;17.00;3.92;;;;;;;;;;5059814;28;20080;-71
2023/10/27 14:36:07;;;;;;;18.02;4.78;;;;;;;;;;5044452;28;20049;-70